Portada
METAR-TAF:

METAR-TAF

Aeroports :

Aeroport d'Eivissa

Eivissa, Espanya

latitud: 38-52N, longitud: 001-23E, altitud: 7 m

Observació

L'informe es va fer fa 15 minuts, a les 14:00 UTC
Vent 6 kt del Sud/Sud-Oest
Temperatura 15°C
Humitat 72%
Pressió 1026 hPa
Visibilitat 10 km o més
sense núvols per sota de 1500 mi sense presència de cumulonimbus.

METAR: LEIB 181400Z 21006KT CAVOK 15/10 Q1026 NOSIG

Hora: 15:15 (14:15 UTC)

Pronòstic

L'informe es va fer fa 6 hores i 15 minuts, a les 08:00 UTC
Pronòstic vàlid del 18 a les 09 UTC al 19 a les 09 UTC
Vent 5 kt del Nord-Est
Visibilitat 10 km o més
Escasses núvols a una alçada de 2500 ft
Evolucionant progressivament
l' 18 a les 11 UTC al 18 a les 14 UTC
Vent 10 kt del Sud-Oest
Temporalment
l' 18 a les 21 UTC al 18 a les 24 UTC
Vent 15 kt del Oest/Sud-Oest amb ràfegues de 25 kt

TAF: LEIB 180800Z 1809/1909 04005KT 9999 FEW025 TX16/1813Z TN06/1906Z BECMG 1811/1814 23010KT TEMPO 1821/1824 24015G25KT

Observacions i pronòstics meteorològics de més de 4000 aeroports (METAR i TAF).

Les estacions disponibles són els punts grocs i vermells al mapa.

Posi el ratolí al punt desitjat per veure el nom de l'estació.

Feu clic per veure les observacions i els pronòstics meteorològics.

Per canviar el mapa: feu clic els botons verds amb una creu de color negre per apropar; al botó verd amb un guió per allunyar la imatge; o en les fletxes verdes per a mapes adjacents.


METAR-TAF: